LVBLE SAZM-SAZB
Flight info
| Callsign | LVBLE |
|---|---|
| Flight time | 1h 27m |
| Altitude | 4000 |
| Route | SIRAN1C SIRAN W32 DOTRI DOTRI2Q |
| Aircraft | BE58/L-SDFGRY/C |
Departure
| Time | 2026-05-09 12:10 |
|---|---|
| Airport | Ástor Piazzola International Airport (SAZM) |
Arrival
| Time | 2026-05-09 13:37 |
|---|---|
| Airport | Comandante Espora Airport (SAZB) |
| Time | Latitude | Longitude | Altitude | Speed | Heading |
|---|---|---|---|---|---|
| 2026-05-09 12:05 | -37.93201 | -57.58021 | 48 ft | 0 kts | 26° |
| 2026-05-09 12:06 | -37.93167 | -57.57994 | 48 ft | 14 kts | 34° |
| 2026-05-09 12:06 | -37.93082 | -57.58003 | 48 ft | 19 kts | 307° |
| 2026-05-09 12:07 | -37.93004 | -57.58195 | 47 ft | 30 kts | 299° |
| 2026-05-09 12:07 | -37.92932 | -57.58359 | 46 ft | 9 kts | 357° |
| 2026-05-09 12:07 | -37.92925 | -57.58303 | 46 ft | 6 kts | 132° |
| 2026-05-09 12:07 | -37.92933 | -57.58286 | 47 ft | 2 kts | 122° |
| 2026-05-09 12:08 | -37.92935 | -57.58283 | 47 ft | 0 kts | 122° |
| 2026-05-09 12:09 | -37.93053 | -57.58046 | 48 ft | 71 kts | 118° |
| 2026-05-09 12:09 | -37.93412 | -57.57301 | 102 ft | 119 kts | 123° |
| 2026-05-09 12:09 | -37.93855 | -57.56339 | 462 ft | 131 kts | 131° |
| 2026-05-09 12:10 | -37.95027 | -57.52687 | 1264 ft | 172 kts | 120° |
| 2026-05-09 12:10 | -37.95541 | -57.51313 | 1278 ft | 173 kts | 137° |
| 2026-05-09 12:10 | -37.96415 | -57.50358 | 1426 ft | 163 kts | 156° |
| 2026-05-09 12:11 | -37.97303 | -57.49447 | 1607 ft | 166 kts | 144° |
| 2026-05-09 12:11 | -37.98008 | -57.48273 | 1770 ft | 168 kts | 136° |
| 2026-05-09 12:11 | -37.98648 | -57.47047 | 1924 ft | 164 kts | 139° |
| 2026-05-09 12:11 | -37.99488 | -57.46260 | 2078 ft | 143 kts | 170° |
| 2026-05-09 12:12 | -38.00443 | -57.46140 | 2234 ft | 137 kts | 185° |
| 2026-05-09 12:12 | -38.01390 | -57.46145 | 2393 ft | 138 kts | 184° |
| 2026-05-09 12:12 | -38.02348 | -57.46143 | 2546 ft | 138 kts | 184° |
| 2026-05-09 12:12 | -38.03310 | -57.46144 | 2707 ft | 139 kts | 185° |
| 2026-05-09 12:13 | -38.04283 | -57.46145 | 2867 ft | 141 kts | 184° |
| 2026-05-09 12:13 | -38.05273 | -57.46146 | 3027 ft | 143 kts | 184° |
| 2026-05-09 12:13 | -38.06268 | -57.46145 | 3185 ft | 143 kts | 184° |
| 2026-05-09 12:13 | -38.07267 | -57.46144 | 3339 ft | 144 kts | 184° |
| 2026-05-09 12:14 | -38.08273 | -57.46144 | 3503 ft | 145 kts | 184° |
| 2026-05-09 12:14 | -38.09299 | -57.46146 | 3666 ft | 150 kts | 185° |
| 2026-05-09 12:14 | -38.10347 | -57.46147 | 3815 ft | 154 kts | 184° |
| 2026-05-09 12:14 | -38.11447 | -57.46187 | 3821 ft | 160 kts | 192° |
| 2026-05-09 12:15 | -38.12433 | -57.46848 | 3826 ft | 167 kts | 221° |
| 2026-05-09 12:15 | -38.12974 | -57.48203 | 3830 ft | 183 kts | 248° |
| 2026-05-09 12:15 | -38.13165 | -57.49831 | 3825 ft | 188 kts | 253° |
| 2026-05-09 12:15 | -38.13346 | -57.51463 | 3825 ft | 185 kts | 250° |
| 2026-05-09 12:16 | -38.13591 | -57.53047 | 3821 ft | 182 kts | 248° |
| 2026-05-09 12:16 | -38.13856 | -57.54607 | 3816 ft | 179 kts | 248° |
| 2026-05-09 12:16 | -38.14116 | -57.56145 | 3819 ft | 177 kts | 248° |
| 2026-05-09 12:16 | -38.14372 | -57.57670 | 3813 ft | 176 kts | 248° |
| 2026-05-09 12:17 | -38.14582 | -57.59209 | 3812 ft | 182 kts | 258° |
| 2026-05-09 12:17 | -38.14387 | -57.60844 | 3817 ft | 191 kts | 271° |
| 2026-05-09 12:17 | -38.14079 | -57.62486 | 3815 ft | 191 kts | 271° |
| 2026-05-09 12:17 | -38.13800 | -57.64138 | 3818 ft | 191 kts | 270° |
| 2026-05-09 12:18 | -38.13536 | -57.65783 | 3815 ft | 192 kts | 270° |
| 2026-05-09 12:18 | -38.13269 | -57.67447 | 3820 ft | 193 kts | 270° |
| 2026-05-09 12:18 | -38.12998 | -57.69117 | 3819 ft | 193 kts | 270° |
| 2026-05-09 12:18 | -38.12726 | -57.70793 | 3819 ft | 193 kts | 270° |
| 2026-05-09 12:19 | -38.12459 | -57.72434 | 3820 ft | 192 kts | 270° |
| 2026-05-09 12:19 | -38.12189 | -57.74099 | 3821 ft | 192 kts | 270° |
| 2026-05-09 12:19 | -38.11919 | -57.75758 | 3816 ft | 191 kts | 270° |
| 2026-05-09 12:19 | -38.11651 | -57.77395 | 3820 ft | 188 kts | 270° |
| 2026-05-09 12:20 | -38.11387 | -57.79020 | 3816 ft | 186 kts | 270° |
| 2026-05-09 12:20 | -38.11126 | -57.80626 | 3824 ft | 185 kts | 270° |
| 2026-05-09 12:20 | -38.10865 | -57.82226 | 3822 ft | 185 kts | 270° |
| 2026-05-09 12:20 | -38.10604 | -57.83826 | 3819 ft | 185 kts | 270° |
| 2026-05-09 12:21 | -38.10344 | -57.85422 | 3822 ft | 185 kts | 270° |
| 2026-05-09 12:21 | -38.10083 | -57.87018 | 3818 ft | 184 kts | 270° |
| 2026-05-09 12:21 | -38.09822 | -57.88608 | 3828 ft | 185 kts | 270° |
| 2026-05-09 12:21 | -38.09561 | -57.90208 | 3827 ft | 185 kts | 270° |
| 2026-05-09 12:22 | -38.09297 | -57.91812 | 3826 ft | 186 kts | 270° |
| 2026-05-09 12:22 | -38.09033 | -57.93419 | 3827 ft | 186 kts | 270° |
| 2026-05-09 12:22 | -38.08768 | -57.95026 | 3831 ft | 186 kts | 270° |
| 2026-05-09 12:22 | -38.08505 | -57.96631 | 3829 ft | 186 kts | 270° |
| 2026-05-09 12:23 | -38.08243 | -57.98222 | 3834 ft | 186 kts | 270° |
| 2026-05-09 12:23 | -38.07977 | -57.99829 | 3838 ft | 185 kts | 270° |
| 2026-05-09 12:23 | -38.07714 | -58.01423 | 3836 ft | 185 kts | 270° |
| 2026-05-09 12:23 | -38.07451 | -58.03021 | 3839 ft | 184 kts | 270° |
| 2026-05-09 12:24 | -38.07188 | -58.04613 | 3840 ft | 184 kts | 270° |
| 2026-05-09 12:24 | -38.06925 | -58.06203 | 3840 ft | 184 kts | 270° |
| 2026-05-09 12:24 | -38.06751 | -58.07256 | 3844 ft | 184 kts | 270° |
| 2026-05-09 12:24 | -38.06398 | -58.09387 | 3846 ft | 185 kts | 270° |
| 2026-05-09 12:25 | -38.06133 | -58.10986 | 3850 ft | 185 kts | 270° |
| 2026-05-09 12:25 | -38.05866 | -58.12591 | 3850 ft | 186 kts | 270° |
| 2026-05-09 12:25 | -38.05603 | -58.14178 | 3857 ft | 186 kts | 270° |
| 2026-05-09 12:25 | -38.05335 | -58.15789 | 3855 ft | 187 kts | 270° |
| 2026-05-09 12:26 | -38.05154 | -58.16880 | 3852 ft | 187 kts | 270° |
| 2026-05-09 12:26 | -38.04884 | -58.18498 | 3860 ft | 187 kts | 269° |
| 2026-05-09 12:26 | -38.04856 | -58.20043 | 3861 ft | 170 kts | 247° |
| 2026-05-09 12:26 | -38.05151 | -58.21501 | 3870 ft | 168 kts | 245° |
| 2026-05-09 12:27 | -38.05430 | -58.22928 | 3863 ft | 169 kts | 245° |
| 2026-05-09 12:27 | -38.05705 | -58.24383 | 3867 ft | 170 kts | 246° |
| 2026-05-09 12:27 | -38.05977 | -58.25841 | 3871 ft | 170 kts | 246° |
| 2026-05-09 12:27 | -38.06252 | -58.27307 | 3869 ft | 170 kts | 246° |
| 2026-05-09 12:28 | -38.06525 | -58.28770 | 3870 ft | 171 kts | 246° |
| 2026-05-09 12:28 | -38.06797 | -58.30221 | 3868 ft | 171 kts | 246° |
| 2026-05-09 12:28 | -38.07071 | -58.31691 | 3870 ft | 170 kts | 246° |
| 2026-05-09 12:28 | -38.07344 | -58.33153 | 3873 ft | 170 kts | 246° |
| 2026-05-09 12:29 | -38.07618 | -58.34614 | 3872 ft | 170 kts | 245° |
| 2026-05-09 12:29 | -38.07891 | -58.36076 | 3875 ft | 170 kts | 246° |
| 2026-05-09 12:29 | -38.08163 | -58.37537 | 3875 ft | 170 kts | 246° |
| 2026-05-09 12:29 | -38.08436 | -58.39005 | 3881 ft | 171 kts | 246° |
| 2026-05-09 12:30 | -38.08711 | -58.40480 | 3878 ft | 172 kts | 246° |
| 2026-05-09 12:30 | -38.08986 | -58.41958 | 3881 ft | 172 kts | 246° |
| 2026-05-09 12:30 | -38.09532 | -58.44899 | 3879 ft | 171 kts | 246° |
| 2026-05-09 12:31 | -38.09802 | -58.46355 | 3889 ft | 171 kts | 246° |
| 2026-05-09 12:31 | -38.10346 | -58.49290 | 3890 ft | 170 kts | 246° |
| 2026-05-09 12:31 | -38.10616 | -58.50752 | 3891 ft | 170 kts | 246° |
| 2026-05-09 12:32 | -38.10886 | -58.52208 | 3891 ft | 170 kts | 246° |
| 2026-05-09 12:32 | -38.11156 | -58.53667 | 3893 ft | 169 kts | 246° |
| 2026-05-09 12:32 | -38.11424 | -58.55120 | 3900 ft | 169 kts | 246° |
| 2026-05-09 12:32 | -38.11693 | -58.56576 | 3894 ft | 170 kts | 246° |
| 2026-05-09 12:33 | -38.11964 | -58.58038 | 3892 ft | 170 kts | 246° |
| 2026-05-09 12:33 | -38.12234 | -58.59506 | 3901 ft | 170 kts | 246° |
| 2026-05-09 12:33 | -38.12504 | -58.60975 | 3906 ft | 171 kts | 246° |
| 2026-05-09 12:33 | -38.12775 | -58.62448 | 3899 ft | 172 kts | 246° |
| 2026-05-09 12:34 | -38.13043 | -58.63906 | 3905 ft | 171 kts | 246° |
| 2026-05-09 12:34 | -38.13313 | -58.65378 | 3903 ft | 171 kts | 246° |
| 2026-05-09 12:34 | -38.13582 | -58.66843 | 3913 ft | 170 kts | 246° |
| 2026-05-09 12:34 | -38.13851 | -58.68308 | 3909 ft | 170 kts | 246° |
| 2026-05-09 12:35 | -38.14119 | -58.69767 | 3912 ft | 170 kts | 246° |
| 2026-05-09 12:35 | -38.14388 | -58.71232 | 3909 ft | 170 kts | 246° |
| 2026-05-09 12:35 | -38.14651 | -58.72671 | 3912 ft | 169 kts | 246° |
| 2026-05-09 12:35 | -38.14917 | -58.74126 | 3916 ft | 169 kts | 246° |
| 2026-05-09 12:36 | -38.15183 | -58.75583 | 3916 ft | 169 kts | 246° |
| 2026-05-09 12:36 | -38.15450 | -58.77039 | 3918 ft | 169 kts | 246° |
| 2026-05-09 12:36 | -38.15716 | -58.78498 | 3919 ft | 169 kts | 246° |
| 2026-05-09 12:36 | -38.15983 | -58.79959 | 3922 ft | 170 kts | 246° |
| 2026-05-09 12:37 | -38.16249 | -58.81419 | 3922 ft | 170 kts | 246° |
| 2026-05-09 12:37 | -38.16516 | -58.82884 | 3923 ft | 170 kts | 246° |
| 2026-05-09 12:37 | -38.16781 | -58.84345 | 3930 ft | 169 kts | 246° |
| 2026-05-09 12:37 | -38.17042 | -58.85783 | 3930 ft | 169 kts | 246° |
| 2026-05-09 12:38 | -38.17306 | -58.87232 | 3931 ft | 168 kts | 246° |
| 2026-05-09 12:38 | -38.17569 | -58.88680 | 3934 ft | 168 kts | 246° |
| 2026-05-09 12:38 | -38.17831 | -58.90124 | 3932 ft | 168 kts | 246° |
| 2026-05-09 12:38 | -38.18093 | -58.91566 | 3932 ft | 167 kts | 246° |
| 2026-05-09 12:39 | -38.18355 | -58.93011 | 3933 ft | 168 kts | 246° |
| 2026-05-09 12:39 | -38.18620 | -58.94470 | 3934 ft | 169 kts | 246° |
| 2026-05-09 12:39 | -38.18884 | -58.95931 | 3936 ft | 170 kts | 247° |
| 2026-05-09 12:39 | -38.19149 | -58.97399 | 3939 ft | 171 kts | 247° |
| 2026-05-09 12:40 | -38.19411 | -58.98853 | 3943 ft | 171 kts | 247° |
| 2026-05-09 12:40 | -38.19678 | -59.00330 | 3946 ft | 171 kts | 247° |
| 2026-05-09 12:40 | -38.19944 | -59.01805 | 3946 ft | 171 kts | 247° |
| 2026-05-09 12:40 | -38.20209 | -59.03280 | 3947 ft | 171 kts | 247° |
| 2026-05-09 12:41 | -38.20475 | -59.04755 | 3945 ft | 171 kts | 247° |
| 2026-05-09 12:41 | -38.20740 | -59.06229 | 3952 ft | 171 kts | 247° |
| 2026-05-09 12:41 | -38.21006 | -59.07706 | 3949 ft | 171 kts | 247° |
| 2026-05-09 12:41 | -38.21271 | -59.09183 | 3949 ft | 172 kts | 247° |
| 2026-05-09 12:42 | -38.21537 | -59.10663 | 3950 ft | 172 kts | 247° |
| 2026-05-09 12:42 | -38.21802 | -59.12143 | 3954 ft | 171 kts | 247° |
| 2026-05-09 12:42 | -38.22068 | -59.13626 | 3955 ft | 172 kts | 247° |
| 2026-05-09 12:42 | -38.22335 | -59.15109 | 3954 ft | 172 kts | 247° |
| 2026-05-09 12:43 | -38.22597 | -59.16579 | 3956 ft | 173 kts | 247° |
| 2026-05-09 12:43 | -38.22862 | -59.18061 | 3962 ft | 172 kts | 247° |
| 2026-05-09 12:43 | -38.23127 | -59.19545 | 3962 ft | 172 kts | 247° |
| 2026-05-09 12:43 | -38.23393 | -59.21033 | 3960 ft | 173 kts | 247° |
| 2026-05-09 12:44 | -38.23659 | -59.22523 | 3961 ft | 173 kts | 247° |
| 2026-05-09 12:44 | -38.23925 | -59.24016 | 3966 ft | 173 kts | 247° |
| 2026-05-09 12:44 | -38.24191 | -59.25508 | 3966 ft | 173 kts | 247° |
| 2026-05-09 12:44 | -38.24456 | -59.26997 | 3966 ft | 173 kts | 247° |
| 2026-05-09 12:45 | -38.24721 | -59.28493 | 3971 ft | 173 kts | 247° |
| 2026-05-09 12:45 | -38.24987 | -59.29984 | 3970 ft | 173 kts | 248° |
| 2026-05-09 12:45 | -38.25251 | -59.31469 | 3974 ft | 172 kts | 247° |
| 2026-05-09 12:45 | -38.25512 | -59.32943 | 3971 ft | 172 kts | 247° |
| 2026-05-09 12:46 | -38.25776 | -59.34432 | 3974 ft | 173 kts | 247° |
| 2026-05-09 12:46 | -38.26040 | -59.35921 | 3980 ft | 172 kts | 247° |
| 2026-05-09 12:46 | -38.26303 | -59.37407 | 3981 ft | 172 kts | 247° |
| 2026-05-09 12:46 | -38.26566 | -59.38893 | 3983 ft | 172 kts | 247° |
| 2026-05-09 12:47 | -38.26828 | -59.40377 | 3984 ft | 172 kts | 247° |
| 2026-05-09 12:47 | -38.27091 | -59.41864 | 3980 ft | 172 kts | 247° |
| 2026-05-09 12:47 | -38.27354 | -59.43354 | 3987 ft | 173 kts | 247° |
| 2026-05-09 12:47 | -38.27616 | -59.44842 | 3991 ft | 172 kts | 248° |
| 2026-05-09 12:48 | -38.27876 | -59.46318 | 3990 ft | 173 kts | 247° |
| 2026-05-09 12:48 | -38.28140 | -59.47814 | 3986 ft | 173 kts | 248° |
| 2026-05-09 12:48 | -38.28403 | -59.49314 | 3989 ft | 173 kts | 247° |
| 2026-05-09 12:48 | -38.28664 | -59.50800 | 3991 ft | 172 kts | 247° |
| 2026-05-09 12:49 | -38.28924 | -59.52283 | 3994 ft | 172 kts | 247° |
| 2026-05-09 12:49 | -38.29186 | -59.53768 | 4000 ft | 171 kts | 247° |
| 2026-05-09 12:49 | -38.29445 | -59.55249 | 3999 ft | 171 kts | 247° |
| 2026-05-09 12:49 | -38.29705 | -59.56731 | 3997 ft | 171 kts | 247° |
| 2026-05-09 12:50 | -38.29963 | -59.58207 | 4000 ft | 171 kts | 248° |
| 2026-05-09 12:50 | -38.30221 | -59.59682 | 3999 ft | 171 kts | 247° |
| 2026-05-09 12:50 | -38.30482 | -59.61167 | 4004 ft | 172 kts | 248° |
| 2026-05-09 12:50 | -38.30738 | -59.62636 | 4006 ft | 172 kts | 248° |
| 2026-05-09 12:51 | -38.30998 | -59.64127 | 4005 ft | 173 kts | 248° |
| 2026-05-09 12:51 | -38.31259 | -59.65626 | 4011 ft | 173 kts | 248° |
| 2026-05-09 12:51 | -38.31520 | -59.67123 | 4009 ft | 174 kts | 247° |
| 2026-05-09 12:51 | -38.31781 | -59.68623 | 4008 ft | 173 kts | 248° |
| 2026-05-09 12:52 | -38.32042 | -59.70122 | 4016 ft | 173 kts | 248° |
| 2026-05-09 12:52 | -38.32302 | -59.71616 | 4008 ft | 173 kts | 247° |
| 2026-05-09 12:52 | -38.32561 | -59.73109 | 4013 ft | 172 kts | 247° |
| 2026-05-09 12:52 | -38.32821 | -59.74605 | 4017 ft | 173 kts | 247° |
| 2026-05-09 12:53 | -38.33081 | -59.76100 | 4017 ft | 173 kts | 248° |
| 2026-05-09 12:53 | -38.33340 | -59.77595 | 4019 ft | 173 kts | 248° |
| 2026-05-09 12:53 | -38.33596 | -59.79074 | 4020 ft | 173 kts | 247° |
| 2026-05-09 12:53 | -38.33856 | -59.80572 | 4019 ft | 173 kts | 247° |
| 2026-05-09 12:54 | -38.34115 | -59.82070 | 4019 ft | 173 kts | 247° |
| 2026-05-09 12:54 | -38.34376 | -59.83576 | 4019 ft | 174 kts | 247° |
| 2026-05-09 12:54 | -38.34635 | -59.85075 | 4019 ft | 174 kts | 248° |
| 2026-05-09 12:54 | -38.34894 | -59.86578 | 4022 ft | 174 kts | 248° |
| 2026-05-09 12:55 | -38.35153 | -59.88082 | 4019 ft | 173 kts | 247° |
| 2026-05-09 12:55 | -38.35408 | -59.89560 | 4021 ft | 173 kts | 248° |
| 2026-05-09 12:55 | -38.35667 | -59.91060 | 4021 ft | 173 kts | 248° |
| 2026-05-09 12:55 | -38.35925 | -59.92559 | 4023 ft | 173 kts | 248° |
| 2026-05-09 12:56 | -38.36183 | -59.94058 | 4024 ft | 173 kts | 248° |
| 2026-05-09 12:56 | -38.36440 | -59.95555 | 4025 ft | 172 kts | 248° |
| 2026-05-09 12:56 | -38.36695 | -59.97041 | 4027 ft | 171 kts | 247° |
| 2026-05-09 12:56 | -38.36950 | -59.98529 | 4029 ft | 172 kts | 247° |
| 2026-05-09 12:57 | -38.37206 | -60.00015 | 4029 ft | 172 kts | 247° |
| 2026-05-09 12:57 | -38.37458 | -60.01489 | 4027 ft | 172 kts | 247° |
| 2026-05-09 12:57 | -38.37713 | -60.02983 | 4028 ft | 172 kts | 247° |
| 2026-05-09 12:57 | -38.37968 | -60.04474 | 4033 ft | 172 kts | 248° |
| 2026-05-09 12:58 | -38.38224 | -60.05967 | 4032 ft | 172 kts | 248° |
| 2026-05-09 12:58 | -38.38477 | -60.07456 | 4032 ft | 172 kts | 248° |
| 2026-05-09 12:58 | -38.38730 | -60.08940 | 4036 ft | 172 kts | 248° |
| 2026-05-09 12:58 | -38.38984 | -60.10427 | 4039 ft | 171 kts | 248° |
| 2026-05-09 12:59 | -38.39238 | -60.11916 | 4034 ft | 172 kts | 247° |
| 2026-05-09 12:59 | -38.39492 | -60.13408 | 4040 ft | 172 kts | 247° |
| 2026-05-09 12:59 | -38.39747 | -60.14906 | 4042 ft | 173 kts | 248° |
| 2026-05-09 12:59 | -38.40003 | -60.16412 | 4044 ft | 174 kts | 248° |
| 2026-05-09 13:00 | -38.40259 | -60.17920 | 4043 ft | 174 kts | 248° |
| 2026-05-09 13:00 | -38.40514 | -60.19427 | 4045 ft | 174 kts | 248° |
| 2026-05-09 13:00 | -38.40769 | -60.20932 | 4045 ft | 173 kts | 248° |
| 2026-05-09 13:00 | -38.41019 | -60.22414 | 4044 ft | 173 kts | 248° |
| 2026-05-09 13:01 | -38.41274 | -60.23915 | 4047 ft | 173 kts | 248° |
| 2026-05-09 13:01 | -38.41527 | -60.25413 | 4046 ft | 173 kts | 248° |
| 2026-05-09 13:01 | -38.41781 | -60.26913 | 4048 ft | 173 kts | 248° |
| 2026-05-09 13:01 | -38.42034 | -60.28414 | 4049 ft | 173 kts | 248° |
| 2026-05-09 13:02 | -38.42286 | -60.29909 | 4055 ft | 172 kts | 248° |
| 2026-05-09 13:02 | -38.42538 | -60.31404 | 4051 ft | 172 kts | 248° |
| 2026-05-09 13:02 | -38.42790 | -60.32899 | 4052 ft | 172 kts | 248° |
| 2026-05-09 13:02 | -38.43040 | -60.34391 | 4052 ft | 172 kts | 248° |
| 2026-05-09 13:03 | -38.43292 | -60.35887 | 4061 ft | 173 kts | 248° |
| 2026-05-09 13:03 | -38.43544 | -60.37387 | 4060 ft | 173 kts | 248° |
| 2026-05-09 13:03 | -38.43792 | -60.38866 | 4056 ft | 172 kts | 248° |
| 2026-05-09 13:03 | -38.44042 | -60.40357 | 4063 ft | 172 kts | 248° |
| 2026-05-09 13:04 | -38.44291 | -60.41850 | 4065 ft | 172 kts | 248° |
| 2026-05-09 13:04 | -38.44543 | -60.43345 | 4059 ft | 172 kts | 248° |
| 2026-05-09 13:04 | -38.44793 | -60.44841 | 4061 ft | 173 kts | 248° |
| 2026-05-09 13:04 | -38.45044 | -60.46343 | 4058 ft | 173 kts | 248° |
| 2026-05-09 13:05 | -38.45295 | -60.47848 | 4064 ft | 173 kts | 248° |
| 2026-05-09 13:05 | -38.45545 | -60.49348 | 4065 ft | 173 kts | 248° |
| 2026-05-09 13:05 | -38.45794 | -60.50845 | 4062 ft | 172 kts | 248° |
| 2026-05-09 13:05 | -38.46039 | -60.52316 | 4063 ft | 171 kts | 248° |
| 2026-05-09 13:06 | -38.46287 | -60.53803 | 4065 ft | 171 kts | 248° |
| 2026-05-09 13:06 | -38.46534 | -60.55288 | 4063 ft | 171 kts | 248° |
| 2026-05-09 13:06 | -38.46781 | -60.56775 | 4068 ft | 171 kts | 248° |
| 2026-05-09 13:06 | -38.47028 | -60.58263 | 4070 ft | 172 kts | 248° |
| 2026-05-09 13:07 | -38.47276 | -60.59756 | 4072 ft | 172 kts | 248° |
| 2026-05-09 13:07 | -38.47524 | -60.61251 | 4067 ft | 172 kts | 248° |
| 2026-05-09 13:07 | -38.47772 | -60.62749 | 4076 ft | 172 kts | 248° |
| 2026-05-09 13:07 | -38.48020 | -60.64248 | 4077 ft | 172 kts | 248° |
| 2026-05-09 13:08 | -38.48267 | -60.65743 | 4078 ft | 172 kts | 248° |
| 2026-05-09 13:08 | -38.48514 | -60.67240 | 4076 ft | 172 kts | 248° |
| 2026-05-09 13:08 | -38.48762 | -60.68743 | 4078 ft | 173 kts | 248° |
| 2026-05-09 13:08 | -38.49009 | -60.70242 | 4079 ft | 173 kts | 248° |
| 2026-05-09 13:09 | -38.49257 | -60.71745 | 4077 ft | 173 kts | 248° |
| 2026-05-09 13:09 | -38.49504 | -60.73247 | 4079 ft | 172 kts | 248° |
| 2026-05-09 13:09 | -38.49747 | -60.74723 | 4081 ft | 172 kts | 248° |
| 2026-05-09 13:09 | -38.49993 | -60.76217 | 4087 ft | 172 kts | 248° |
| 2026-05-09 13:10 | -38.50238 | -60.77711 | 4082 ft | 172 kts | 248° |
| 2026-05-09 13:10 | -38.50483 | -60.79202 | 4082 ft | 172 kts | 248° |
| 2026-05-09 13:10 | -38.50728 | -60.80699 | 4085 ft | 171 kts | 248° |
| 2026-05-09 13:10 | -38.50972 | -60.82188 | 4087 ft | 171 kts | 248° |
| 2026-05-09 13:11 | -38.51216 | -60.83676 | 4089 ft | 171 kts | 248° |
| 2026-05-09 13:11 | -38.51460 | -60.85168 | 4088 ft | 172 kts | 248° |
| 2026-05-09 13:11 | -38.51705 | -60.86665 | 4089 ft | 172 kts | 248° |
| 2026-05-09 13:11 | -38.51946 | -60.88145 | 4092 ft | 173 kts | 248° |
| 2026-05-09 13:12 | -38.52191 | -60.89647 | 4096 ft | 173 kts | 248° |
| 2026-05-09 13:12 | -38.52436 | -60.91151 | 4099 ft | 173 kts | 248° |
| 2026-05-09 13:12 | -38.52681 | -60.92656 | 4098 ft | 173 kts | 248° |
| 2026-05-09 13:12 | -38.52925 | -60.94160 | 4098 ft | 172 kts | 248° |
| 2026-05-09 13:13 | -38.53169 | -60.95659 | 4101 ft | 172 kts | 248° |
| 2026-05-09 13:13 | -38.53412 | -60.97153 | 4103 ft | 172 kts | 248° |
| 2026-05-09 13:13 | -38.53656 | -60.98657 | 4100 ft | 172 kts | 248° |
| 2026-05-09 13:13 | -38.53899 | -61.00156 | 4101 ft | 172 kts | 248° |
| 2026-05-09 13:14 | -38.53955 | -61.01720 | 4104 ft | 182 kts | 264° |
| 2026-05-09 13:14 | -38.53773 | -61.03339 | 4105 ft | 184 kts | 266° |
| 2026-05-09 13:16 | -38.52722 | -61.14124 | 4110 ft | 184 kts | 265° |
| 2026-05-09 13:16 | -38.52513 | -61.16293 | 4113 ft | 184 kts | 265° |
| 2026-05-09 13:16 | -38.52410 | -61.17370 | 4114 ft | 185 kts | 265° |
| 2026-05-09 13:16 | -38.52253 | -61.19001 | 4113 ft | 186 kts | 265° |
| 2026-05-09 13:17 | -38.52094 | -61.20635 | 4116 ft | 185 kts | 265° |
| 2026-05-09 13:17 | -38.51936 | -61.22263 | 4118 ft | 185 kts | 265° |
| 2026-05-09 13:17 | -38.51777 | -61.23897 | 4120 ft | 185 kts | 265° |
| 2026-05-09 13:17 | -38.51620 | -61.25527 | 4118 ft | 185 kts | 265° |
| 2026-05-09 13:18 | -38.51461 | -61.27163 | 4121 ft | 186 kts | 265° |
| 2026-05-09 13:18 | -38.51301 | -61.28802 | 4126 ft | 186 kts | 265° |
| 2026-05-09 13:18 | -38.51143 | -61.30414 | 4123 ft | 185 kts | 265° |
| 2026-05-09 13:18 | -38.50983 | -61.32038 | 4128 ft | 183 kts | 265° |
| 2026-05-09 13:19 | -38.50825 | -61.33647 | 4128 ft | 182 kts | 265° |
| 2026-05-09 13:19 | -38.50669 | -61.35252 | 4130 ft | 181 kts | 265° |
| 2026-05-09 13:19 | -38.50512 | -61.36851 | 4129 ft | 182 kts | 265° |
| 2026-05-09 13:19 | -38.50356 | -61.38454 | 4129 ft | 183 kts | 265° |
| 2026-05-09 13:20 | -38.50197 | -61.40070 | 4131 ft | 183 kts | 265° |
| 2026-05-09 13:20 | -38.50146 | -61.40592 | 4132 ft | 184 kts | 265° |
| 2026-05-09 13:20 | -38.50053 | -61.41524 | 4135 ft | 184 kts | 265° |
| 2026-05-09 13:21 | -38.49892 | -61.43153 | 4133 ft | 184 kts | 265° |
| 2026-05-09 13:21 | -38.49733 | -61.44774 | 4136 ft | 184 kts | 265° |
| 2026-05-09 13:21 | -38.49571 | -61.46397 | 4142 ft | 185 kts | 265° |
| 2026-05-09 13:21 | -38.49410 | -61.48023 | 4142 ft | 184 kts | 265° |
| 2026-05-09 13:22 | -38.49248 | -61.49643 | 4144 ft | 184 kts | 265° |
| 2026-05-09 13:22 | -38.49088 | -61.51260 | 4145 ft | 184 kts | 265° |
| 2026-05-09 13:22 | -38.48927 | -61.52886 | 4141 ft | 185 kts | 265° |
| 2026-05-09 13:23 | -38.48272 | -61.59433 | 4151 ft | 186 kts | 265° |
| 2026-05-09 13:23 | -38.48108 | -61.61067 | 4153 ft | 186 kts | 265° |
| 2026-05-09 13:24 | -38.47944 | -61.62708 | 4154 ft | 187 kts | 266° |
| 2026-05-09 13:24 | -38.47781 | -61.64331 | 4152 ft | 187 kts | 265° |
| 2026-05-09 13:24 | -38.47614 | -61.65981 | 4154 ft | 188 kts | 265° |
| 2026-05-09 13:24 | -38.47448 | -61.67632 | 4155 ft | 188 kts | 265° |
| 2026-05-09 13:25 | -38.47281 | -61.69281 | 4157 ft | 187 kts | 265° |
| 2026-05-09 13:25 | -38.47148 | -61.70924 | 4153 ft | 181 kts | 257° |
| 2026-05-09 13:25 | -38.47600 | -61.73966 | 4165 ft | 174 kts | 248° |
| 2026-05-09 13:26 | -38.47839 | -61.75484 | 4164 ft | 175 kts | 248° |
| 2026-05-09 13:26 | -38.48073 | -61.77010 | 4166 ft | 175 kts | 248° |
| 2026-05-09 13:26 | -38.48307 | -61.78540 | 4167 ft | 176 kts | 248° |
| 2026-05-09 13:26 | -38.48542 | -61.80073 | 4163 ft | 176 kts | 248° |
| 2026-05-09 13:27 | -38.48776 | -61.81607 | 4167 ft | 176 kts | 248° |
| 2026-05-09 13:27 | -38.49011 | -61.83139 | 4169 ft | 176 kts | 248° |
| 2026-05-09 13:27 | -38.49246 | -61.84676 | 4167 ft | 176 kts | 248° |
| 2026-05-09 13:27 | -38.49478 | -61.86192 | 4166 ft | 176 kts | 248° |
| 2026-05-09 13:28 | -38.49711 | -61.87727 | 4169 ft | 176 kts | 248° |
| 2026-05-09 13:28 | -38.49945 | -61.89259 | 4174 ft | 176 kts | 248° |
| 2026-05-09 13:28 | -38.50179 | -61.90794 | 4177 ft | 176 kts | 248° |
| 2026-05-09 13:28 | -38.50411 | -61.92319 | 4176 ft | 175 kts | 248° |
| 2026-05-09 13:29 | -38.50643 | -61.93845 | 4169 ft | 175 kts | 248° |
| 2026-05-09 13:29 | -38.50874 | -61.95368 | 4172 ft | 175 kts | 248° |
| 2026-05-09 13:29 | -38.51107 | -61.96894 | 4174 ft | 175 kts | 248° |
| 2026-05-09 13:29 | -38.51339 | -61.98426 | 4175 ft | 176 kts | 248° |
| 2026-05-09 13:30 | -38.51571 | -61.99960 | 4179 ft | 176 kts | 248° |
| 2026-05-09 13:30 | -38.51804 | -62.01500 | 4181 ft | 176 kts | 248° |
| 2026-05-09 13:30 | -38.52036 | -62.03039 | 4182 ft | 176 kts | 248° |
| 2026-05-09 13:30 | -38.52267 | -62.04570 | 4181 ft | 176 kts | 248° |
| 2026-05-09 13:31 | -38.52499 | -62.06107 | 4180 ft | 176 kts | 248° |
| 2026-05-09 13:31 | -38.52730 | -62.07636 | 4181 ft | 175 kts | 248° |
| 2026-05-09 13:31 | -38.52962 | -62.09169 | 4170 ft | 175 kts | 248° |
| 2026-05-09 13:31 | -38.53193 | -62.10701 | 4177 ft | 176 kts | 249° |
| 2026-05-09 13:32 | -38.53481 | -62.12203 | 4181 ft | 172 kts | 242° |
| 2026-05-09 13:32 | -38.54153 | -62.15144 | 4188 ft | 174 kts | 244° |
| 2026-05-09 13:32 | -38.54492 | -62.16637 | 4188 ft | 175 kts | 243° |
| 2026-05-09 13:33 | -38.54834 | -62.18131 | 4189 ft | 176 kts | 243° |
| 2026-05-09 13:33 | -38.55201 | -62.19612 | 4186 ft | 172 kts | 236° |
| 2026-05-09 13:33 | -38.55945 | -62.20702 | 4186 ft | 160 kts | 207° |
| 2026-05-09 13:33 | -38.56993 | -62.21095 | 4188 ft | 158 kts | 182° |
| 2026-05-09 13:34 | -38.58079 | -62.20819 | 4189 ft | 161 kts | 168° |
| 2026-05-09 13:34 | -38.59149 | -62.20406 | 4192 ft | 160 kts | 168° |
| 2026-05-09 13:34 | -38.60219 | -62.20008 | 4191 ft | 160 kts | 168° |
| 2026-05-09 13:34 | -38.61290 | -62.19609 | 4192 ft | 160 kts | 168° |
| 2026-05-09 13:35 | -38.62366 | -62.19209 | 4191 ft | 161 kts | 168° |
| 2026-05-09 13:35 | -38.63443 | -62.18807 | 4192 ft | 161 kts | 169° |
| 2026-05-09 13:35 | -38.64516 | -62.18408 | 4190 ft | 160 kts | 168° |
| 2026-05-09 13:35 | -38.65586 | -62.18009 | 4191 ft | 160 kts | 169° |
| 2026-05-09 13:36 | -38.66648 | -62.17633 | 4183 ft | 147 kts | 174° |
| 2026-05-09 13:36 | -38.67583 | -62.17157 | 2870 ft | 167 kts | 154° |
| 2026-05-09 13:36 | -38.68731 | -62.16434 | 1236 ft | 193 kts | 170° |
| 2026-05-09 13:36 | -38.69980 | -62.16117 | 466 ft | 170 kts | 176° |
| 2026-05-09 13:37 | -38.71026 | -62.15945 | 353 ft | 134 kts | 178° |
| 2026-05-09 13:37 | -38.71818 | -62.15671 | 276 ft | 100 kts | 172° |
| 2026-05-09 13:37 | -38.72331 | -62.15479 | 263 ft | 57 kts | 164° |
| 2026-05-09 13:37 | -38.72517 | -62.15433 | 252 ft | 21 kts | 134° |
| 2026-05-09 13:38 | -38.72529 | -62.15418 | 252 ft | 0 kts | 137° |